sensor_id;sensor_type;location;lat;lon;timestamp;P1;durP1;ratioP1;P2;durP2;ratioP2
12784;SDS011;6456;42.680;23.260;2023-02-01T00:01:32;3.03;;;2.83;;
12784;SDS011;6456;42.680;23.260;2023-02-01T00:03:59;3.27;;;2.97;;
12784;SDS011;6456;42.680;23.260;2023-02-01T00:06:26;4.97;;;3.30;;
12784;SDS011;6456;42.680;23.260;2023-02-01T00:09:25;3.03;;;2.63;;
12784;SDS011;6456;42.680;23.260;2023-02-01T00:11:54;2.93;;;2.67;;
12784;SDS011;6456;42.680;23.260;2023-02-01T00:14:44;2.80;;;2.60;;
12784;SDS011;6456;42.680;23.260;2023-02-01T00:17:29;4.10;;;2.43;;
12784;SDS011;6456;42.680;23.260;2023-02-01T00:19:56;3.93;;;2.80;;
12784;SDS011;6456;42.680;23.260;2023-02-01T00:22:23;2.70;;;2.50;;
12784;SDS011;6456;42.680;23.260;2023-02-01T00:24:49;4.67;;;2.90;;
12784;SDS011;6456;42.680;23.260;2023-02-01T00:27:16;2.90;;;2.50;;
12784;SDS011;6456;42.680;23.260;2023-02-01T00:29:46;3.03;;;2.70;;
12784;SDS011;6456;42.680;23.260;2023-02-01T00:32:13;2.70;;;2.50;;
12784;SDS011;6456;42.680;23.260;2023-02-01T00:34:41;2.70;;;2.50;;
12784;SDS011;6456;42.680;23.260;2023-02-01T00:37:08;3.33;;;2.50;;
12784;SDS011;6456;42.680;23.260;2023-02-01T00:39:35;2.90;;;2.70;;
12784;SDS011;6456;42.680;23.260;2023-02-01T00:42:02;3.00;;;2.60;;
12784;SDS011;6456;42.680;23.260;2023-02-01T00:44:29;3.50;;;2.80;;
12784;SDS011;6456;42.680;23.260;2023-02-01T00:46:58;3.40;;;2.43;;
12784;SDS011;6456;42.680;23.260;2023-02-01T00:49:26;3.53;;;2.43;;
12784;SDS011;6456;42.680;23.260;2023-02-01T00:51:54;2.73;;;2.33;;
12784;SDS011;6456;42.680;23.260;2023-02-01T00:54:21;2.93;;;2.33;;
12784;SDS011;6456;42.680;23.260;2023-02-01T00:56:48;4.93;;;2.50;;
12784;SDS011;6456;42.680;23.260;2023-02-01T00:59:15;2.70;;;2.50;;
12784;SDS011;6456;42.680;23.260;2023-02-01T01:01:42;2.70;;;2.50;;
12784;SDS011;6456;42.680;23.260;2023-02-01T01:04:09;3.43;;;2.80;;
12784;SDS011;6456;42.680;23.260;2023-02-01T01:06:36;2.90;;;2.60;;
12784;SDS011;6456;42.680;23.260;2023-02-01T01:09:05;4.60;;;2.60;;
12784;SDS011;6456;42.680;23.260;2023-02-01T01:11:34;3.70;;;2.40;;
12784;SDS011;6456;42.680;23.260;2023-02-01T01:14:02;2.77;;;2.43;;
12784;SDS011;6456;42.680;23.260;2023-02-01T01:16:30;3.60;;;2.37;;
12784;SDS011;6456;42.680;23.260;2023-02-01T01:18:58;2.87;;;2.17;;
12784;SDS011;6456;42.680;23.260;2023-02-01T01:21:26;3.30;;;1.97;;
12784;SDS011;6456;42.680;23.260;2023-02-01T01:23:53;1.87;;;1.77;;
12784;SDS011;6456;42.680;23.260;2023-02-01T01:26:22;2.50;;;2.10;;
12784;SDS011;6456;42.680;23.260;2023-02-01T01:28:50;2.73;;;2.07;;
12784;SDS011;6456;42.680;23.260;2023-02-01T01:31:18;1.93;;;1.83;;
12784;SDS011;6456;42.680;23.260;2023-02-01T01:33:49;3.37;;;2.10;;
12784;SDS011;6456;42.680;23.260;2023-02-01T01:36:17;2.07;;;1.80;;
12784;SDS011;6456;42.680;23.260;2023-02-01T01:38:45;2.23;;;2.00;;
12784;SDS011;6456;42.680;23.260;2023-02-01T01:43:59;2.13;;;1.93;;
12784;SDS011;6456;42.680;23.260;2023-02-01T01:46:28;2.37;;;2.17;;
12784;SDS011;6456;42.680;23.260;2023-02-01T01:49:14;3.07;;;2.20;;
12784;SDS011;6456;42.680;23.260;2023-02-01T01:51:44;3.17;;;1.80;;
12784;SDS011;6456;42.680;23.260;2023-02-01T01:54:17;2.57;;;2.00;;
12784;SDS011;6456;42.680;23.260;2023-02-01T01:56:51;2.20;;;2.00;;
12784;SDS011;6456;42.680;23.260;2023-02-01T01:59:22;4.77;;;2.37;;
12784;SDS011;6456;42.680;23.260;2023-02-01T02:01:50;2.27;;;2.03;;
12784;SDS011;6456;42.680;23.260;2023-02-01T02:04:18;2.67;;;1.90;;
12784;SDS011;6456;42.680;23.260;2023-02-01T02:06:47;5.50;;;2.40;;
12784;SDS011;6456;42.680;23.260;2023-02-01T02:09:20;3.60;;;2.27;;
12784;SDS011;6456;42.680;23.260;2023-02-01T02:11:49;3.93;;;2.10;;
12784;SDS011;6456;42.680;23.260;2023-02-01T02:14:16;2.13;;;1.93;;
12784;SDS011;6456;42.680;23.260;2023-02-01T02:16:52;2.17;;;1.97;;
12784;SDS011;6456;42.680;23.260;2023-02-01T02:19:38;2.10;;;1.70;;
12784;SDS011;6456;42.680;23.260;2023-02-01T02:22:27;2.93;;;2.07;;
12784;SDS011;6456;42.680;23.260;2023-02-01T02:25:28;2.37;;;1.90;;
12784;SDS011;6456;42.680;23.260;2023-02-01T02:28:10;4.00;;;2.20;;
12784;SDS011;6456;42.680;23.260;2023-02-01T02:30:55;2.57;;;2.13;;
12784;SDS011;6456;42.680;23.260;2023-02-01T02:33:45;2.10;;;1.90;;
12784;SDS011;6456;42.680;23.260;2023-02-01T02:36:19;2.90;;;2.10;;
12784;SDS011;6456;42.680;23.260;2023-02-01T02:39:01;2.40;;;2.20;;
12784;SDS011;6456;42.680;23.260;2023-02-01T02:41:35;2.50;;;2.20;;
12784;SDS011;6456;42.680;23.260;2023-02-01T02:44:28;3.37;;;2.43;;
12784;SDS011;6456;42.680;23.260;2023-02-01T02:47:21;3.00;;;2.30;;
12784;SDS011;6456;42.680;23.260;2023-02-01T02:49:56;2.57;;;2.10;;
12784;SDS011;6456;42.680;23.260;2023-02-01T02:52:48;2.97;;;1.67;;
12784;SDS011;6456;42.680;23.260;2023-02-01T02:55:40;3.30;;;2.13;;
12784;SDS011;6456;42.680;23.260;2023-02-01T02:58:08;2.00;;;1.77;;
12784;SDS011;6456;42.680;23.260;2023-02-01T03:00:54;1.90;;;1.70;;
12784;SDS011;6456;42.680;23.260;2023-02-01T03:03:40;1.93;;;1.73;;
12784;SDS011;6456;42.680;23.260;2023-02-01T03:06:27;2.13;;;1.90;;
12784;SDS011;6456;42.680;23.260;2023-02-01T03:08:54;2.33;;;1.80;;
12784;SDS011;6456;42.680;23.260;2023-02-01T03:11:24;2.17;;;1.97;;
12784;SDS011;6456;42.680;23.260;2023-02-01T03:14:13;3.33;;;1.90;;
12784;SDS011;6456;42.680;23.260;2023-02-01T03:16:43;2.03;;;1.70;;
12784;SDS011;6456;42.680;23.260;2023-02-01T03:19:15;2.27;;;2.03;;
12784;SDS011;6456;42.680;23.260;2023-02-01T03:21:48;2.33;;;1.77;;
12784;SDS011;6456;42.680;23.260;2023-02-01T03:24:20;3.20;;;2.30;;
12784;SDS011;6456;42.680;23.260;2023-02-01T03:27:00;2.40;;;2.00;;
12784;SDS011;6456;42.680;23.260;2023-02-01T03:29:33;4.33;;;1.70;;
12784;SDS011;6456;42.680;23.260;2023-02-01T03:32:04;2.83;;;2.00;;
12784;SDS011;6456;42.680;23.260;2023-02-01T03:34:31;1.43;;;1.43;;
12784;SDS011;6456;42.680;23.260;2023-02-01T03:37:01;2.10;;;1.50;;
12784;SDS011;6456;42.680;23.260;2023-02-01T03:39:31;2.30;;;2.10;;
12784;SDS011;6456;42.680;23.260;2023-02-01T03:42:02;1.90;;;1.67;;
12784;SDS011;6456;42.680;23.260;2023-02-01T03:44:33;4.20;;;1.80;;
12784;SDS011;6456;42.680;23.260;2023-02-01T03:47:03;3.07;;;1.60;;
12784;SDS011;6456;42.680;23.260;2023-02-01T03:49:34;1.97;;;1.80;;
12784;SDS011;6456;42.680;23.260;2023-02-01T03:52:06;1.70;;;1.60;;
12784;SDS011;6456;42.680;23.260;2023-02-01T03:54:36;2.37;;;1.97;;
12784;SDS011;6456;42.680;23.260;2023-02-01T03:57:06;2.00;;;1.67;;
12784;SDS011;6456;42.680;23.260;2023-02-01T03:59:38;1.97;;;1.80;;
12784;SDS011;6456;42.680;23.260;2023-02-01T04:02:05;2.67;;;1.87;;
12784;SDS011;6456;42.680;23.260;2023-02-01T04:04:32;2.07;;;1.90;;
12784;SDS011;6456;42.680;23.260;2023-02-01T04:07:00;3.50;;;2.10;;
12784;SDS011;6456;42.680;23.260;2023-02-01T04:09:28;2.27;;;2.03;;
12784;SDS011;6456;42.680;23.260;2023-02-01T04:11:55;2.60;;;1.80;;
12784;SDS011;6456;42.680;23.260;2023-02-01T04:14:22;2.17;;;1.80;;
12784;SDS011;6456;42.680;23.260;2023-02-01T04:16:49;2.83;;;2.17;;
12784;SDS011;6456;42.680;23.260;2023-02-01T04:19:16;2.17;;;1.90;;
12784;SDS011;6456;42.680;23.260;2023-02-01T04:21:42;3.90;;;2.07;;
12784;SDS011;6456;42.680;23.260;2023-02-01T04:24:10;3.70;;;2.10;;
12784;SDS011;6456;42.680;23.260;2023-02-01T04:26:38;4.87;;;2.00;;
12784;SDS011;6456;42.680;23.260;2023-02-01T04:29:05;2.23;;;1.70;;
12784;SDS011;6456;42.680;23.260;2023-02-01T04:31:32;1.70;;;1.60;;
12784;SDS011;6456;42.680;23.260;2023-02-01T04:34:00;3.10;;;2.20;;
12784;SDS011;6456;42.680;23.260;2023-02-01T04:36:27;2.33;;;2.13;;
12784;SDS011;6456;42.680;23.260;2023-02-01T04:38:54;2.20;;;2.00;;
12784;SDS011;6456;42.680;23.260;2023-02-01T04:41:21;2.90;;;2.43;;
12784;SDS011;6456;42.680;23.260;2023-02-01T04:43:49;2.60;;;2.37;;
12784;SDS011;6456;42.680;23.260;2023-02-01T04:46:17;3.73;;;2.60;;
12784;SDS011;6456;42.680;23.260;2023-02-01T04:48:44;4.80;;;2.30;;
12784;SDS011;6456;42.680;23.260;2023-02-01T04:51:11;2.73;;;2.40;;
12784;SDS011;6456;42.680;23.260;2023-02-01T04:53:40;2.73;;;2.40;;
12784;SDS011;6456;42.680;23.260;2023-02-01T04:56:07;2.83;;;2.37;;
12784;SDS011;6456;42.680;23.260;2023-02-01T04:58:34;3.13;;;2.30;;
12784;SDS011;6456;42.680;23.260;2023-02-01T05:01:03;4.97;;;2.50;;
12784;SDS011;6456;42.680;23.260;2023-02-01T05:03:30;3.30;;;2.47;;
12784;SDS011;6456;42.680;23.260;2023-02-01T05:05:57;3.57;;;2.27;;
12784;SDS011;6456;42.680;23.260;2023-02-01T05:08:29;2.53;;;2.33;;
12784;SDS011;6456;42.680;23.260;2023-02-01T05:10:55;2.33;;;2.13;;
12784;SDS011;6456;42.680;23.260;2023-02-01T05:13:23;5.30;;;2.77;;
12784;SDS011;6456;42.680;23.260;2023-02-01T05:16:09;3.17;;;2.70;;
12784;SDS011;6456;42.680;23.260;2023-02-01T05:18:36;4.10;;;3.10;;
12784;SDS011;6456;42.680;23.260;2023-02-01T05:21:02;5.10;;;2.43;;
12784;SDS011;6456;42.680;23.260;2023-02-01T05:23:29;4.90;;;2.70;;
12784;SDS011;6456;42.680;23.260;2023-02-01T05:26:00;3.90;;;3.00;;
12784;SDS011;6456;42.680;23.260;2023-02-01T05:28:27;3.40;;;2.47;;
12784;SDS011;6456;42.680;23.260;2023-02-01T05:30:54;3.33;;;2.60;;
12784;SDS011;6456;42.680;23.260;2023-02-01T05:33:22;3.47;;;2.57;;
12784;SDS011;6456;42.680;23.260;2023-02-01T05:35:49;2.57;;;2.33;;
12784;SDS011;6456;42.680;23.260;2023-02-01T05:38:16;2.90;;;2.57;;
12784;SDS011;6456;42.680;23.260;2023-02-01T05:40:43;3.30;;;2.33;;
12784;SDS011;6456;42.680;23.260;2023-02-01T05:43:14;3.80;;;2.43;;
12784;SDS011;6456;42.680;23.260;2023-02-01T05:45:41;4.00;;;3.00;;
12784;SDS011;6456;42.680;23.260;2023-02-01T05:48:08;4.97;;;3.57;;
12784;SDS011;6456;42.680;23.260;2023-02-01T05:50:36;9.77;;;6.23;;
12784;SDS011;6456;42.680;23.260;2023-02-01T05:53:03;2.70;;;2.30;;
12784;SDS011;6456;42.680;23.260;2023-02-01T05:55:30;2.50;;;2.30;;
12784;SDS011;6456;42.680;23.260;2023-02-01T05:57:57;3.33;;;2.40;;
12784;SDS011;6456;42.680;23.260;2023-02-01T06:00:24;3.87;;;2.27;;
12784;SDS011;6456;42.680;23.260;2023-02-01T06:02:50;4.43;;;2.10;;
12784;SDS011;6456;42.680;23.260;2023-02-01T06:05:17;5.50;;;2.40;;
12784;SDS011;6456;42.680;23.260;2023-02-01T06:07:46;3.43;;;2.30;;
12784;SDS011;6456;42.680;23.260;2023-02-01T06:10:13;2.63;;;2.00;;
12784;SDS011;6456;42.680;23.260;2023-02-01T06:12:39;2.50;;;2.30;;
12784;SDS011;6456;42.680;23.260;2023-02-01T06:15:07;4.77;;;2.20;;
12784;SDS011;6456;42.680;23.260;2023-02-01T06:17:34;4.13;;;2.40;;
12784;SDS011;6456;42.680;23.260;2023-02-01T06:20:01;3.23;;;2.17;;
12784;SDS011;6456;42.680;23.260;2023-02-01T06:22:28;3.33;;;1.93;;
12784;SDS011;6456;42.680;23.260;2023-02-01T06:24:57;5.33;;;2.47;;
12784;SDS011;6456;42.680;23.260;2023-02-01T06:27:24;2.57;;;2.17;;
12784;SDS011;6456;42.680;23.260;2023-02-01T06:29:51;4.17;;;2.20;;
12784;SDS011;6456;42.680;23.260;2023-02-01T06:32:18;2.03;;;1.80;;
12784;SDS011;6456;42.680;23.260;2023-02-01T06:34:45;3.83;;;2.10;;
12784;SDS011;6456;42.680;23.260;2023-02-01T06:37:12;2.03;;;1.80;;
12784;SDS011;6456;42.680;23.260;2023-02-01T06:39:39;4.17;;;2.40;;
12784;SDS011;6456;42.680;23.260;2023-02-01T06:42:07;2.97;;;2.37;;
12784;SDS011;6456;42.680;23.260;2023-02-01T06:44:34;4.03;;;2.50;;
12784;SDS011;6456;42.680;23.260;2023-02-01T06:47:02;5.17;;;2.77;;
12784;SDS011;6456;42.680;23.260;2023-02-01T06:49:32;4.90;;;2.40;;
12784;SDS011;6456;42.680;23.260;2023-02-01T06:51:58;3.80;;;2.30;;
12784;SDS011;6456;42.680;23.260;2023-02-01T06:54:25;3.23;;;2.00;;
12784;SDS011;6456;42.680;23.260;2023-02-01T06:56:52;2.40;;;2.03;;
12784;SDS011;6456;42.680;23.260;2023-02-01T06:59:20;2.37;;;1.93;;
12784;SDS011;6456;42.680;23.260;2023-02-01T07:01:47;2.47;;;2.20;;
12784;SDS011;6456;42.680;23.260;2023-02-01T07:04:14;5.07;;;2.90;;
12784;SDS011;6456;42.680;23.260;2023-02-01T07:06:41;3.00;;;2.23;;
12784;SDS011;6456;42.680;23.260;2023-02-01T07:09:08;3.10;;;2.13;;
12784;SDS011;6456;42.680;23.260;2023-02-01T07:11:37;2.90;;;2.60;;
12784;SDS011;6456;42.680;23.260;2023-02-01T07:14:08;4.87;;;2.30;;
12784;SDS011;6456;42.680;23.260;2023-02-01T07:16:36;4.60;;;2.30;;
12784;SDS011;6456;42.680;23.260;2023-02-01T07:19:03;4.10;;;2.53;;
12784;SDS011;6456;42.680;23.260;2023-02-01T07:21:30;3.47;;;2.50;;
12784;SDS011;6456;42.680;23.260;2023-02-01T07:23:58;6.13;;;2.00;;
12784;SDS011;6456;42.680;23.260;2023-02-01T07:26:25;2.70;;;2.07;;
12784;SDS011;6456;42.680;23.260;2023-02-01T07:28:52;2.67;;;1.83;;
12784;SDS011;6456;42.680;23.260;2023-02-01T07:31:19;3.80;;;2.07;;
12784;SDS011;6456;42.680;23.260;2023-02-01T07:33:48;3.77;;;1.97;;
12784;SDS011;6456;42.680;23.260;2023-02-01T07:36:17;6.30;;;2.13;;
12784;SDS011;6456;42.680;23.260;2023-02-01T07:38:45;2.30;;;2.10;;
12784;SDS011;6456;42.680;23.260;2023-02-01T07:41:13;3.47;;;2.27;;
12784;SDS011;6456;42.680;23.260;2023-02-01T07:43:40;3.37;;;1.83;;
12784;SDS011;6456;42.680;23.260;2023-02-01T07:46:07;1.87;;;1.70;;
12784;SDS011;6456;42.680;23.260;2023-02-01T07:48:35;2.87;;;2.00;;
12784;SDS011;6456;42.680;23.260;2023-02-01T07:51:04;4.80;;;2.40;;
12784;SDS011;6456;42.680;23.260;2023-02-01T07:53:33;2.00;;;1.57;;
12784;SDS011;6456;42.680;23.260;2023-02-01T07:56:01;3.20;;;1.77;;
12784;SDS011;6456;42.680;23.260;2023-02-01T07:58:29;3.67;;;2.20;;
12784;SDS011;6456;42.680;23.260;2023-02-01T08:00:56;3.80;;;2.30;;
12784;SDS011;6456;42.680;23.260;2023-02-01T08:03:40;5.27;;;2.20;;
12784;SDS011;6456;42.680;23.260;2023-02-01T08:06:08;4.67;;;1.87;;
12784;SDS011;6456;42.680;23.260;2023-02-01T08:08:35;1.90;;;1.70;;
12784;SDS011;6456;42.680;23.260;2023-02-01T08:11:03;3.27;;;2.03;;
12784;SDS011;6456;42.680;23.260;2023-02-01T08:13:32;4.57;;;2.17;;
12784;SDS011;6456;42.680;23.260;2023-02-01T08:16:00;3.60;;;1.77;;
12784;SDS011;6456;42.680;23.260;2023-02-01T08:18:28;2.80;;;2.10;;
12784;SDS011;6456;42.680;23.260;2023-02-01T08:20:55;3.33;;;1.80;;
12784;SDS011;6456;42.680;23.260;2023-02-01T08:23:23;4.67;;;2.20;;
12784;SDS011;6456;42.680;23.260;2023-02-01T08:25:50;10.40;;;2.60;;
12784;SDS011;6456;42.680;23.260;2023-02-01T08:28:17;6.37;;;2.10;;
12784;SDS011;6456;42.680;23.260;2023-02-01T08:30:44;2.70;;;1.93;;
12784;SDS011;6456;42.680;23.260;2023-02-01T08:33:11;3.23;;;2.10;;
12784;SDS011;6456;42.680;23.260;2023-02-01T08:35:38;2.57;;;1.80;;
12784;SDS011;6456;42.680;23.260;2023-02-01T08:38:05;3.90;;;1.80;;
12784;SDS011;6456;42.680;23.260;2023-02-01T08:40:33;4.57;;;1.70;;
12784;SDS011;6456;42.680;23.260;2023-02-01T08:43:00;3.60;;;1.90;;
12784;SDS011;6456;42.680;23.260;2023-02-01T08:45:28;2.23;;;1.50;;
12784;SDS011;6456;42.680;23.260;2023-02-01T08:47:56;2.60;;;1.60;;
12784;SDS011;6456;42.680;23.260;2023-02-01T08:50:24;4.60;;;1.70;;
12784;SDS011;6456;42.680;23.260;2023-02-01T08:52:51;4.30;;;1.80;;
12784;SDS011;6456;42.680;23.260;2023-02-01T08:55:18;4.20;;;1.87;;
12784;SDS011;6456;42.680;23.260;2023-02-01T08:57:47;2.40;;;1.90;;
12784;SDS011;6456;42.680;23.260;2023-02-01T09:00:15;3.00;;;2.00;;
12784;SDS011;6456;42.680;23.260;2023-02-01T09:02:42;8.83;;;2.70;;
12784;SDS011;6456;42.680;23.260;2023-02-01T09:05:09;1.70;;;1.30;;
12784;SDS011;6456;42.680;23.260;2023-02-01T09:07:36;2.73;;;1.63;;
12784;SDS011;6456;42.680;23.260;2023-02-01T09:10:03;2.53;;;1.90;;
12784;SDS011;6456;42.680;23.260;2023-02-01T09:12:31;2.50;;;1.63;;
12784;SDS011;6456;42.680;23.260;2023-02-01T09:15:00;5.80;;;2.57;;
12784;SDS011;6456;42.680;23.260;2023-02-01T09:17:28;6.50;;;2.33;;
12784;SDS011;6456;42.680;23.260;2023-02-01T09:19:55;5.90;;;2.07;;
12784;SDS011;6456;42.680;23.260;2023-02-01T09:22:22;3.77;;;2.47;;
12784;SDS011;6456;42.680;23.260;2023-02-01T09:24:49;1.40;;;1.30;;
12784;SDS011;6456;42.680;23.260;2023-02-01T09:27:16;4.57;;;1.63;;
12784;SDS011;6456;42.680;23.260;2023-02-01T09:29:42;5.87;;;1.67;;
12784;SDS011;6456;42.680;23.260;2023-02-01T09:32:11;5.27;;;2.07;;
12784;SDS011;6456;42.680;23.260;2023-02-01T09:34:38;2.10;;;1.77;;
12784;SDS011;6456;42.680;23.260;2023-02-01T09:37:04;4.40;;;1.50;;
12784;SDS011;6456;42.680;23.260;2023-02-01T09:39:31;1.40;;;1.30;;
12784;SDS011;6456;42.680;23.260;2023-02-01T09:42:01;2.80;;;1.80;;
12784;SDS011;6456;42.680;23.260;2023-02-01T09:47:39;2.50;;;1.63;;
12784;SDS011;6456;42.680;23.260;2023-02-01T09:50:13;2.83;;;1.67;;
12784;SDS011;6456;42.680;23.260;2023-02-01T09:52:45;3.33;;;1.50;;
12784;SDS011;6456;42.680;23.260;2023-02-01T09:55:19;4.73;;;1.50;;
12784;SDS011;6456;42.680;23.260;2023-02-01T09:57:53;5.93;;;1.70;;
12784;SDS011;6456;42.680;23.260;2023-02-01T10:00:27;2.60;;;1.57;;
12784;SDS011;6456;42.680;23.260;2023-02-01T10:03:01;5.13;;;1.97;;
12784;SDS011;6456;42.680;23.260;2023-02-01T10:05:43;1.93;;;1.60;;
12784;SDS011;6456;42.680;23.260;2023-02-01T10:08:22;3.10;;;2.20;;
12784;SDS011;6456;42.680;23.260;2023-02-01T10:10:56;2.83;;;1.77;;
12784;SDS011;6456;42.680;23.260;2023-02-01T10:13:33;2.57;;;2.00;;
12784;SDS011;6456;42.680;23.260;2023-02-01T10:16:12;3.57;;;2.60;;
12784;SDS011;6456;42.680;23.260;2023-02-01T10:19:00;4.30;;;1.90;;
12784;SDS011;6456;42.680;23.260;2023-02-01T10:21:42;3.90;;;1.90;;
12784;SDS011;6456;42.680;23.260;2023-02-01T10:24:23;1.57;;;1.47;;
12784;SDS011;6456;42.680;23.260;2023-02-01T10:27:06;4.37;;;2.13;;
12784;SDS011;6456;42.680;23.260;2023-02-01T10:29:39;1.70;;;1.27;;
12784;SDS011;6456;42.680;23.260;2023-02-01T10:32:10;3.00;;;1.83;;
12784;SDS011;6456;42.680;23.260;2023-02-01T10:34:41;6.30;;;2.10;;
12784;SDS011;6456;42.680;23.260;2023-02-01T10:37:23;2.57;;;1.60;;
12784;SDS011;6456;42.680;23.260;2023-02-01T10:39:53;3.13;;;1.83;;
12784;SDS011;6456;42.680;23.260;2023-02-01T10:42:24;4.80;;;2.20;;
12784;SDS011;6456;42.680;23.260;2023-02-01T10:44:52;3.13;;;2.17;;
12784;SDS011;6456;42.680;23.260;2023-02-01T10:47:22;1.70;;;1.60;;
12784;SDS011;6456;42.680;23.260;2023-02-01T10:49:52;1.93;;;1.77;;
12784;SDS011;6456;42.680;23.260;2023-02-01T10:52:29;2.13;;;1.77;;
12784;SDS011;6456;42.680;23.260;2023-02-01T10:58:04;5.10;;;2.10;;
12784;SDS011;6456;42.680;23.260;2023-02-01T11:00:34;1.80;;;1.60;;
12784;SDS011;6456;42.680;23.260;2023-02-01T11:03:19;9.60;;;2.33;;
12784;SDS011;6456;42.680;23.260;2023-02-01T11:06:03;2.37;;;1.97;;
12784;SDS011;6456;42.680;23.260;2023-02-01T11:08:41;2.00;;;1.60;;
12784;SDS011;6456;42.680;23.260;2023-02-01T11:11:10;2.57;;;1.40;;
12784;SDS011;6456;42.680;23.260;2023-02-01T11:13:38;2.63;;;1.67;;
12784;SDS011;6456;42.680;23.260;2023-02-01T11:16:06;1.73;;;1.60;;
12784;SDS011;6456;42.680;23.260;2023-02-01T11:18:38;2.13;;;1.40;;
12784;SDS011;6456;42.680;23.260;2023-02-01T11:21:07;3.30;;;1.77;;
12784;SDS011;6456;42.680;23.260;2023-02-01T11:23:39;2.67;;;1.77;;
12784;SDS011;6456;42.680;23.260;2023-02-01T11:26:10;2.90;;;1.70;;
12784;SDS011;6456;42.680;23.260;2023-02-01T11:28:40;2.27;;;1.70;;
12784;SDS011;6456;42.680;23.260;2023-02-01T11:31:16;2.27;;;1.50;;
12784;SDS011;6456;42.680;23.260;2023-02-01T11:33:45;3.50;;;1.63;;
12784;SDS011;6456;42.680;23.260;2023-02-01T11:36:19;1.43;;;1.30;;
12784;SDS011;6456;42.680;23.260;2023-02-01T11:38:51;5.00;;;1.87;;
12784;SDS011;6456;42.680;23.260;2023-02-01T11:41:21;3.30;;;1.47;;
12784;SDS011;6456;42.680;23.260;2023-02-01T11:43:50;3.27;;;1.33;;
12784;SDS011;6456;42.680;23.260;2023-02-01T11:46:20;2.20;;;1.60;;
12784;SDS011;6456;42.680;23.260;2023-02-01T11:48:52;2.40;;;1.20;;
12784;SDS011;6456;42.680;23.260;2023-02-01T11:51:24;3.53;;;1.33;;
12784;SDS011;6456;42.680;23.260;2023-02-01T11:54:07;2.90;;;1.20;;
12784;SDS011;6456;42.680;23.260;2023-02-01T11:56:48;5.43;;;1.30;;
12784;SDS011;6456;42.680;23.260;2023-02-01T11:59:32;1.53;;;1.30;;
12784;SDS011;6456;42.680;23.260;2023-02-01T12:02:19;1.40;;;1.30;;
12784;SDS011;6456;42.680;23.260;2023-02-01T12:05:08;3.73;;;1.67;;
12784;SDS011;6456;42.680;23.260;2023-02-01T12:08:01;1.90;;;1.40;;
12784;SDS011;6456;42.680;23.260;2023-02-01T12:10:50;1.87;;;1.10;;
12784;SDS011;6456;42.680;23.260;2023-02-01T12:13:36;1.73;;;1.20;;
12784;SDS011;6456;42.680;23.260;2023-02-01T12:16:16;2.07;;;1.60;;
12784;SDS011;6456;42.680;23.260;2023-02-01T12:18:56;1.10;;;1.00;;
12784;SDS011;6456;42.680;23.260;2023-02-01T12:21:35;2.37;;;1.33;;
12784;SDS011;6456;42.680;23.260;2023-02-01T12:27:36;1.60;;;1.27;;
12784;SDS011;6456;42.680;23.260;2023-02-01T12:30:22;2.43;;;1.40;;
12784;SDS011;6456;42.680;23.260;2023-02-01T12:33:10;3.33;;;1.40;;
12784;SDS011;6456;42.680;23.260;2023-02-01T12:35:48;1.73;;;1.40;;
12784;SDS011;6456;42.680;23.260;2023-02-01T12:41:23;3.37;;;1.40;;
12784;SDS011;6456;42.680;23.260;2023-02-01T12:44:11;2.40;;;1.50;;
12784;SDS011;6456;42.680;23.260;2023-02-01T12:46:44;1.83;;;1.47;;
12784;SDS011;6456;42.680;23.260;2023-02-01T12:49:14;3.60;;;1.50;;
12784;SDS011;6456;42.680;23.260;2023-02-01T12:51:47;5.17;;;2.17;;
12784;SDS011;6456;42.680;23.260;2023-02-01T12:54:18;3.30;;;1.50;;
12784;SDS011;6456;42.680;23.260;2023-02-01T12:56:51;2.77;;;1.40;;
12784;SDS011;6456;42.680;23.260;2023-02-01T12:59:24;1.60;;;1.50;;
12784;SDS011;6456;42.680;23.260;2023-02-01T13:01:59;1.43;;;1.33;;
12784;SDS011;6456;42.680;23.260;2023-02-01T13:04:32;1.50;;;1.40;;
12784;SDS011;6456;42.680;23.260;2023-02-01T13:07:06;3.03;;;2.00;;
12784;SDS011;6456;42.680;23.260;2023-02-01T13:09:40;1.83;;;1.27;;
12784;SDS011;6456;42.680;23.260;2023-02-01T13:12:14;2.47;;;1.37;;
12784;SDS011;6456;42.680;23.260;2023-02-01T13:14:45;2.63;;;1.07;;
12784;SDS011;6456;42.680;23.260;2023-02-01T13:17:16;1.80;;;1.27;;
12784;SDS011;6456;42.680;23.260;2023-02-01T13:19:49;1.73;;;1.30;;
12784;SDS011;6456;42.680;23.260;2023-02-01T13:22:21;3.00;;;1.83;;
12784;SDS011;6456;42.680;23.260;2023-02-01T13:24:52;3.40;;;1.83;;
12784;SDS011;6456;42.680;23.260;2023-02-01T13:27:23;4.90;;;2.00;;
12784;SDS011;6456;42.680;23.260;2023-02-01T13:29:56;3.70;;;1.70;;
12784;SDS011;6456;42.680;23.260;2023-02-01T13:32:39;1.40;;;1.30;;
12784;SDS011;6456;42.680;23.260;2023-02-01T13:35:30;1.30;;;1.20;;
12784;SDS011;6456;42.680;23.260;2023-02-01T13:41:24;1.43;;;1.10;;
12784;SDS011;6456;42.680;23.260;2023-02-01T13:43:56;1.37;;;1.20;;
12784;SDS011;6456;42.680;23.260;2023-02-01T13:46:27;2.27;;;1.70;;
12784;SDS011;6456;42.680;23.260;2023-02-01T13:48:57;1.90;;;1.30;;
12784;SDS011;6456;42.680;23.260;2023-02-01T13:51:35;2.77;;;1.57;;
12784;SDS011;6456;42.680;23.260;2023-02-01T13:54:04;5.63;;;1.83;;
12784;SDS011;6456;42.680;23.260;2023-02-01T13:56:39;2.63;;;1.73;;
12784;SDS011;6456;42.680;23.260;2023-02-01T14:08:14;1.87;;;1.40;;
12784;SDS011;6456;42.680;23.260;2023-02-01T14:10:49;1.93;;;1.50;;
12784;SDS011;6456;42.680;23.260;2023-02-01T14:13:24;4.50;;;1.87;;
12784;SDS011;6456;42.680;23.260;2023-02-01T14:21:34;1.40;;;1.30;;
12784;SDS011;6456;42.680;23.260;2023-02-01T14:24:16;2.00;;;1.40;;
12784;SDS011;6456;42.680;23.260;2023-02-01T14:26:50;2.20;;;1.60;;
12784;SDS011;6456;42.680;23.260;2023-02-01T14:29:21;1.60;;;1.50;;
12784;SDS011;6456;42.680;23.260;2023-02-01T14:32:01;2.77;;;2.13;;
12784;SDS011;6456;42.680;23.260;2023-02-01T14:34:39;5.23;;;2.47;;
12784;SDS011;6456;42.680;23.260;2023-02-01T14:37:24;2.23;;;1.80;;
12784;SDS011;6456;42.680;23.260;2023-02-01T14:39:57;4.53;;;2.47;;
12784;SDS011;6456;42.680;23.260;2023-02-01T14:42:28;2.87;;;2.23;;
12784;SDS011;6456;42.680;23.260;2023-02-01T14:51:01;3.80;;;2.03;;
12784;SDS011;6456;42.680;23.260;2023-02-01T14:53:31;2.33;;;1.90;;
12784;SDS011;6456;42.680;23.260;2023-02-01T14:56:00;3.17;;;1.80;;
12784;SDS011;6456;42.680;23.260;2023-02-01T14:58:35;2.10;;;1.90;;
12784;SDS011;6456;42.680;23.260;2023-02-01T15:01:16;3.97;;;2.10;;
12784;SDS011;6456;42.680;23.260;2023-02-01T15:03:58;2.17;;;1.83;;
12784;SDS011;6456;42.680;23.260;2023-02-01T15:06:32;3.23;;;2.00;;
12784;SDS011;6456;42.680;23.260;2023-02-01T15:09:03;3.70;;;2.10;;
12784;SDS011;6456;42.680;23.260;2023-02-01T15:14:21;5.00;;;3.20;;
12784;SDS011;6456;42.680;23.260;2023-02-01T15:16:48;3.33;;;1.97;;
12784;SDS011;6456;42.680;23.260;2023-02-01T15:19:22;3.80;;;2.00;;
12784;SDS011;6456;42.680;23.260;2023-02-01T15:21:56;3.53;;;2.23;;
12784;SDS011;6456;42.680;23.260;2023-02-01T15:24:30;2.40;;;2.10;;
12784;SDS011;6456;42.680;23.260;2023-02-01T15:27:03;3.13;;;2.40;;
12784;SDS011;6456;42.680;23.260;2023-02-01T15:29:35;5.63;;;2.57;;
12784;SDS011;6456;42.680;23.260;2023-02-01T15:32:02;2.40;;;2.10;;
12784;SDS011;6456;42.680;23.260;2023-02-01T15:34:45;2.73;;;1.90;;
12784;SDS011;6456;42.680;23.260;2023-02-01T15:37:17;3.43;;;2.50;;
12784;SDS011;6456;42.680;23.260;2023-02-01T15:40:03;4.77;;;2.43;;
12784;SDS011;6456;42.680;23.260;2023-02-01T15:42:32;5.70;;;2.67;;
12784;SDS011;6456;42.680;23.260;2023-02-01T15:45:00;2.23;;;1.70;;
12784;SDS011;6456;42.680;23.260;2023-02-01T15:47:27;4.73;;;2.23;;
12784;SDS011;6456;42.680;23.260;2023-02-01T15:49:59;2.77;;;2.20;;
12784;SDS011;6456;42.680;23.260;2023-02-01T15:52:30;1.90;;;1.70;;
12784;SDS011;6456;42.680;23.260;2023-02-01T15:55:01;2.20;;;1.83;;
12784;SDS011;6456;42.680;23.260;2023-02-01T15:57:32;4.07;;;2.70;;